createdAt,value
2023-04-02T00:00:19.591Z,95535.38
2023-04-02T00:02:57.476Z,95533.56
2023-04-02T00:05:54.994Z,95538.66
2023-04-02T00:08:41.090Z,95538.84
2023-04-02T00:11:10.775Z,95530.09
2023-04-02T00:13:44.716Z,95538.84
2023-04-02T00:16:20.952Z,95534.56
2023-04-02T00:18:54.350Z,95534.56
2023-04-02T00:21:25.478Z,95536.22
2023-04-02T00:23:56.077Z,95544.59
2023-04-02T00:26:33.022Z,95533.66
2023-04-02T00:29:03.182Z,95542.03
2023-04-02T00:31:33.882Z,95535.94
2023-04-02T00:34:04.748Z,95535.94
2023-04-02T00:36:35.307Z,95548.75
2023-04-02T00:39:08.953Z,95547.94
2023-04-02T00:41:38.818Z,95546.97
2023-04-02T00:44:07.517Z,95540.84
2023-04-02T00:46:47.126Z,95539.38
2023-04-02T00:49:23.513Z,95546.50
2023-04-02T00:51:55.835Z,95540.41
2023-04-02T00:54:26.737Z,95545.03
2023-04-02T00:56:58.261Z,95544.03
2023-04-02T00:59:29.341Z,95541.56
2023-04-02T01:02:02.666Z,95544.84
2023-04-02T01:04:34.673Z,95547.66
2023-04-02T01:07:09.258Z,95539.94
2023-04-02T01:10:03.386Z,95544.38
2023-04-02T01:12:52.222Z,95539.31
2023-04-02T01:15:25.934Z,95539.94
2023-04-02T01:18:09.685Z,95541.75
2023-04-02T01:21:12.267Z,95539.75
2023-04-02T01:23:53.941Z,95548.50
2023-04-02T01:26:36.099Z,95545.03
2023-04-02T01:29:12.008Z,95545.84
2023-04-02T01:31:41.811Z,95546.66
2023-04-02T01:34:14.574Z,95551.94
2023-04-02T01:36:53.230Z,95553.78
2023-04-02T01:39:31.807Z,95551.94
2023-04-02T01:42:07.949Z,95549.31
2023-04-02T01:44:42.975Z,95551.94
2023-04-02T01:47:18.323Z,95562.88
2023-04-02T01:49:48.197Z,95561.41
2023-04-02T01:52:19.230Z,95553.66
2023-04-02T01:54:48.672Z,95551.03
2023-04-02T01:57:20.944Z,95552.03
2023-04-02T01:59:50.904Z,95561.97
2023-04-02T02:02:21.969Z,95566.59
2023-04-02T02:04:50.988Z,95559.66
2023-04-02T02:07:23.464Z,95566.78
2023-04-02T02:09:52.453Z,95580.97
2023-04-02T02:12:20.926Z,95573.03
2023-04-02T02:14:52.113Z,95565.31
2023-04-02T02:17:34.504Z,95580.50
2023-04-02T02:20:06.689Z,95586.78
2023-04-02T02:22:38.959Z,95591.25
2023-04-02T02:25:14.652Z,95586.78
2023-04-02T02:27:54.393Z,95589.25
2023-04-02T02:30:28.356Z,95593.69
2023-04-02T02:33:03.507Z,95592.06
2023-04-02T02:35:38.410Z,95598.53
2023-04-02T02:38:39.858Z,95591.44
2023-04-02T02:41:14.823Z,95600.34
2023-04-02T02:43:47.885Z,95596.06
2023-04-02T02:46:21.125Z,95595.44
2023-04-02T02:48:50.964Z,95593.94
2023-04-02T02:51:26.177Z,95596.59
2023-04-02T02:53:58.516Z,95606.16
2023-04-02T02:56:27.989Z,95605.34
2023-04-02T02:58:56.524Z,95607.97
2023-04-02T03:01:29.008Z,95613.25
2023-04-02T03:03:57.759Z,95612.41
2023-04-02T03:06:26.500Z,95619.53
2023-04-02T03:09:03.418Z,95621.19
2023-04-02T03:11:38.348Z,95620.53
2023-04-02T03:14:16.954Z,95619.69
2023-04-02T03:16:49.994Z,95624.00
2023-04-02T03:19:29.261Z,95623.19
2023-04-02T03:22:05.944Z,95621.34
2023-04-02T03:24:40.809Z,95619.53
2023-04-02T03:27:15.481Z,95617.69
2023-04-02T03:29:49.565Z,95624.28
2023-04-02T03:32:32.673Z,95633.19
2023-04-02T03:35:05.226Z,95626.63
2023-04-02T03:37:40.349Z,95626.16
2023-04-02T03:40:11.680Z,95631.44
2023-04-02T03:42:44.499Z,95629.63
2023-04-02T03:45:17.877Z,95635.09
2023-04-02T03:47:54.033Z,95629.13
2023-04-02T03:50:29.112Z,95634.25
2023-04-02T03:52:58.373Z,95633.44
2023-04-02T03:55:30.048Z,95632.63
2023-04-02T03:58:02.412Z,95638.88
2023-04-02T04:00:37.872Z,95636.06
2023-04-02T04:03:13.792Z,95640.16
2023-04-02T04:05:49.285Z,95640.00
2023-04-02T04:08:22.214Z,95640.63
2023-04-02T04:10:53.567Z,95649.19
2023-04-02T04:13:30.082Z,95647.38
2023-04-02T04:16:03.850Z,95653.50
2023-04-02T04:18:41.874Z,95663.88
2023-04-02T04:21:18.458Z,95665.69
2023-04-02T04:23:51.438Z,95656.78
2023-04-02T04:26:24.646Z,95657.59
2023-04-02T04:29:05.528Z,95668.78
2023-04-02T04:31:40.715Z,95666.16
2023-04-02T04:34:16.589Z,95671.44
2023-04-02T04:36:54.240Z,95673.72
2023-04-02T04:39:29.557Z,95682.47
2023-04-02T04:42:01.393Z,95689.41
2023-04-02T04:44:42.983Z,95684.13
2023-04-02T04:47:16.603Z,95694.66
2023-04-02T04:49:49.179Z,95691.19
2023-04-02T04:52:21.618Z,95684.13
2023-04-02T04:54:50.150Z,95694.84
2023-04-02T04:57:31.104Z,95690.91
2023-04-02T05:00:08.053Z,95699.47
2023-04-02T05:02:42.043Z,95702.28
2023-04-02T05:05:21.206Z,95701.91
2023-04-02T05:07:52.553Z,95714.13
2023-04-02T05:10:30.177Z,95710.69
2023-04-02T05:13:05.073Z,95716.78
2023-04-02T05:15:40.139Z,95722.06
2023-04-02T05:18:18.858Z,95722.88
2023-04-02T05:20:52.390Z,95726.34
2023-04-02T05:23:27.070Z,95727.00
2023-04-02T05:26:01.205Z,95733.25
2023-04-02T05:28:36.801Z,95748.09
2023-04-02T05:31:12.091Z,95734.78
2023-04-02T05:33:41.261Z,95742.22
2023-04-02T05:36:13.437Z,95744.22
2023-04-02T05:38:47.637Z,95751.47
2023-04-02T05:41:26.875Z,95753.97
2023-04-02T05:44:06.859Z,95747.50
2023-04-02T05:46:38.303Z,95758.06
2023-04-02T05:49:11.131Z,95761.34
2023-04-02T05:51:46.272Z,95763.34
2023-04-02T05:54:23.308Z,95763.34
2023-04-02T05:56:57.052Z,95768.63
2023-04-02T05:59:30.353Z,95767.00
2023-04-02T06:02:03.598Z,95767.00
2023-04-02T06:04:38.170Z,95772.09
2023-04-02T06:07:12.440Z,95769.47
2023-04-02T06:09:45.456Z,95781.31
2023-04-02T06:12:20.520Z,95781.78
2023-04-02T06:14:49.391Z,95785.50
2023-04-02T06:17:20.058Z,95780.06
2023-04-02T06:19:49.269Z,95785.19
2023-04-02T06:22:26.221Z,95789.28
2023-04-02T06:25:00.242Z,95796.22
2023-04-02T06:27:29.526Z,95796.88
2023-04-02T06:30:03.617Z,95802.44
2023-04-02T06:32:32.424Z,95802.91
2023-04-02T06:35:00.929Z,95802.72
2023-04-02T06:37:35.808Z,95811.28
2023-04-02T06:40:08.046Z,95812.66
2023-04-02T06:42:39.929Z,95817.13
2023-04-02T06:45:18.606Z,95826.03
2023-04-02T06:47:51.313Z,95827.38
2023-04-02T06:50:26.935Z,95834.31
2023-04-02T06:53:09.711Z,95837.75
2023-04-02T06:55:46.093Z,95837.72
2023-04-02T06:58:16.666Z,95842.28
2023-04-02T07:00:47.235Z,95846.03
2023-04-02T07:03:20.793Z,95845.53
2023-04-02T07:05:49.150Z,95861.03
2023-04-02T07:08:18.874Z,95850.81
2023-04-02T07:10:47.710Z,95856.59
2023-04-02T07:13:17.286Z,95856.59
2023-04-02T07:15:46.854Z,95861.66
2023-04-02T07:18:24.758Z,95867.97
2023-04-02T07:20:53.220Z,95863.81
2023-04-02T07:23:23.061Z,95868.38
2023-04-02T07:25:52.518Z,95863.91
2023-04-02T07:28:22.750Z,95869.38
2023-04-02T07:30:52.147Z,95876.78
2023-04-02T07:33:22.490Z,95871.31
2023-04-02T07:35:51.604Z,95874.78
2023-04-02T07:38:20.049Z,95873.59
2023-04-02T07:40:49.857Z,95877.91
2023-04-02T07:43:18.210Z,95876.25
2023-04-02T07:45:46.620Z,95884.47
2023-04-02T07:48:15.654Z,95887.94
2023-04-02T07:50:44.017Z,95890.75
2023-04-02T07:53:29.696Z,95890.22
2023-04-02T07:56:01.100Z,95891.16
2023-04-02T07:58:30.356Z,95893.13
2023-04-02T08:00:59.051Z,95905.31
2023-04-02T08:03:27.976Z,95902.50
2023-04-02T08:05:57.954Z,95910.59
2023-04-02T08:08:27.256Z,95907.78
2023-04-02T08:10:55.923Z,95906.13
2023-04-02T08:13:25.873Z,95908.97
2023-04-02T08:15:54.227Z,95915.88
2023-04-02T08:18:23.620Z,95911.41
2023-04-02T08:20:52.647Z,95909.06
2023-04-02T08:23:21.675Z,95920.47
2023-04-02T08:25:50.329Z,95913.16
2023-04-02T08:28:18.863Z,95918.16
2023-04-02T08:30:50.053Z,95919.78
2023-04-02T08:33:19.049Z,95928.66
2023-04-02T08:35:48.568Z,95919.03
2023-04-02T08:38:18.078Z,95917.03
2023-04-02T08:40:48.670Z,95922.78
2023-04-02T08:43:49.105Z,95924.59
2023-04-02T08:46:25.800Z,95921.97
2023-04-02T08:48:57.483Z,95929.66
2023-04-02T08:51:28.214Z,95931.56
2023-04-02T08:54:01.325Z,95923.72
2023-04-02T08:56:35.378Z,95931.97
2023-04-02T08:59:08.790Z,95929.41
2023-04-02T09:01:49.773Z,95934.44
2023-04-02T09:04:21.315Z,95941.94
2023-04-02T09:06:53.573Z,95938.72
2023-04-02T09:09:24.372Z,95947.59
2023-04-02T09:11:56.314Z,95942.50
2023-04-02T09:14:33.630Z,95946.69
2023-04-02T09:17:04.882Z,95950.44
2023-04-02T09:19:38.222Z,95952.91
2023-04-02T09:22:10.069Z,95959.84
2023-04-02T09:24:38.924Z,95965.13
2023-04-02T09:27:19.190Z,95965.41
2023-04-02T09:29:49.865Z,95958.56
2023-04-02T09:32:33.219Z,95964.56
2023-04-02T09:35:25.610Z,95966.66
2023-04-02T09:38:18.822Z,95967.31
2023-04-02T09:40:50.546Z,95966.94
2023-04-02T09:43:21.906Z,95966.94
2023-04-02T09:45:59.806Z,95965.94
2023-04-02T09:48:32.209Z,95959.06
2023-04-02T09:51:12.669Z,95962.16
2023-04-02T09:53:42.837Z,95966.47
2023-04-02T09:56:14.832Z,95964.28
2023-04-02T09:58:45.185Z,95963.16
2023-04-02T10:01:29.894Z,95976.44
2023-04-02T10:04:00.237Z,95980.91
2023-04-02T10:06:30.961Z,95979.00
2023-04-02T10:09:21.611Z,95986.66
2023-04-02T10:11:51.659Z,95983.47
2023-04-02T10:14:29.245Z,95977.56
2023-04-02T10:17:00.782Z,95982.94
2023-04-02T10:19:34.186Z,95985.22
2023-04-02T10:22:06.434Z,95979.63
2023-04-02T10:24:34.849Z,95987.63
2023-04-02T10:27:17.601Z,95980.13
2023-04-02T10:30:14.674Z,95981.50
2023-04-02T10:32:47.938Z,95978.84
2023-04-02T10:35:36.462Z,95984.78
2023-04-02T10:38:24.717Z,95981.97
2023-04-02T10:41:00.103Z,95982.84
2023-04-02T10:44:18.975Z,95984.16
2023-04-02T10:46:57.722Z,95978.34
2023-04-02T10:49:33.440Z,95988.91
2023-04-02T10:52:09.879Z,95996.28
2023-04-02T10:54:44.355Z,95993.63
2023-04-02T10:57:25.171Z,95992.81
2023-04-02T10:59:57.548Z,95998.94
2023-04-02T11:02:32.908Z,96003.44
2023-04-02T11:05:08.846Z,96004.88
2023-04-02T11:07:52.149Z,96007.97
2023-04-02T11:10:22.358Z,96003.53
2023-04-02T11:12:58.964Z,95997.06
2023-04-02T11:15:32.112Z,95994.28
2023-04-02T11:18:01.085Z,95994.38
2023-04-02T11:21:00.625Z,95992.28
2023-04-02T11:23:39.004Z,95991.63
2023-04-02T11:26:33.661Z,95992.09
2023-04-02T11:29:07.656Z,95991.13
2023-04-02T11:31:36.292Z,96001.16
2023-04-02T11:34:07.482Z,96004.22
2023-04-02T11:37:01.677Z,96005.84
2023-04-02T11:39:59.201Z,96008.50
2023-04-02T11:42:33.263Z,96007.50
2023-04-02T11:45:20.240Z,96005.28
2023-04-02T11:48:21.591Z,96009.66
2023-04-02T11:50:51.659Z,96011.34
2023-04-02T11:53:24.111Z,96009.53
2023-04-02T11:56:10.427Z,96001.19
2023-04-02T11:58:56.573Z,96009.25
2023-04-02T12:01:58.480Z,96012.72
2023-04-02T12:04:53.780Z,96017.25
2023-04-02T12:07:55.856Z,96006.78
2023-04-02T12:10:30.185Z,96008.63
2023-04-02T12:12:59.946Z,96014.31
2023-04-02T12:15:44.651Z,96009.81
2023-04-02T12:18:16.802Z,96007.75
2023-04-02T12:20:51.215Z,96011.78
2023-04-02T12:23:21.959Z,96021.59
2023-04-02T12:25:58.473Z,96013.22
2023-04-02T12:28:30.065Z,96005.91
2023-04-02T12:31:13.021Z,96019.56
2023-04-02T12:33:42.828Z,96015.72
2023-04-02T12:36:20.786Z,96010.81
2023-04-02T12:38:51.238Z,96024.59
2023-04-02T12:41:27.042Z,96018.47
2023-04-02T12:44:00.856Z,96020.53
2023-04-02T12:46:30.567Z,96022.13
2023-04-02T12:49:05.352Z,96023.34
2023-04-02T12:51:34.642Z,96018.66
2023-04-02T12:54:03.226Z,96026.63
2023-04-02T12:56:31.681Z,96024.34
2023-04-02T12:59:02.483Z,96020.88
2023-04-02T13:01:32.081Z,96039.44
2023-04-02T13:04:02.853Z,96030.22
2023-04-02T13:06:32.054Z,96024.28
2023-04-02T13:09:01.711Z,96031.38
2023-04-02T13:11:38.564Z,96034.25
2023-04-02T13:14:10.453Z,96041.00
2023-04-02T13:16:41.541Z,96032.09
2023-04-02T13:19:23.335Z,96048.38
2023-04-02T13:21:52.578Z,96052.44
2023-04-02T13:24:22.373Z,96051.59
2023-04-02T13:26:52.214Z,96062.50
2023-04-02T13:29:25.765Z,96060.16
2023-04-02T13:32:06.566Z,96059.06
2023-04-02T13:34:35.081Z,96059.38
2023-04-02T13:37:03.457Z,96062.97
2023-04-02T13:39:31.970Z,96055.81
2023-04-02T13:42:03.071Z,96053.16
2023-04-02T13:44:34.873Z,96064.25
2023-04-02T13:47:03.328Z,96062.44
2023-04-02T13:49:32.600Z,96062.22
2023-04-02T13:52:05.142Z,96063.06
2023-04-02T13:54:41.019Z,96061.03
2023-04-02T13:57:11.604Z,96064.75
2023-04-02T13:59:44.150Z,96062.34
2023-04-02T14:02:15.624Z,96069.94
2023-04-02T14:04:50.628Z,96066.06
2023-04-02T14:07:30.712Z,96074.47
2023-04-02T14:10:06.323Z,96076.75
2023-04-02T14:12:47.898Z,96086.19
2023-04-02T14:15:32.805Z,96090.41
2023-04-02T14:18:16.673Z,96096.41
2023-04-02T14:20:53.009Z,96103.06
2023-04-02T14:23:40.774Z,96101.25
2023-04-02T14:26:18.448Z,96100.94
2023-04-02T14:28:59.060Z,96101.63
2023-04-02T14:31:35.072Z,96109.03
2023-04-02T14:34:10.473Z,96109.78
2023-04-02T14:36:51.139Z,96119.41
2023-04-02T14:39:29.361Z,96119.59
2023-04-02T14:42:01.946Z,96121.59
2023-04-02T14:44:36.094Z,96119.59
2023-04-02T14:47:17.570Z,96118.94
2023-04-02T14:49:49.706Z,96123.25
2023-04-02T14:52:22.351Z,96122.34
2023-04-02T14:54:54.505Z,96128.63
2023-04-02T14:57:26.518Z,96130.41
2023-04-02T15:00:01.887Z,96135.88
2023-04-02T15:02:42.811Z,96133.31
2023-04-02T15:05:18.521Z,96145.25
2023-04-02T15:07:52.014Z,96146.69
2023-04-02T15:10:27.386Z,96147.38
2023-04-02T15:12:56.824Z,96159.09
2023-04-02T15:15:40.456Z,96155.13
2023-04-02T15:18:15.159Z,96162.16
2023-04-02T15:20:54.577Z,96155.81
2023-04-02T15:23:35.543Z,96157.50
2023-04-02T15:26:14.940Z,96164.56
2023-04-02T15:28:48.004Z,96158.84
2023-04-02T15:31:16.658Z,96168.78
2023-04-02T15:33:54.679Z,96158.91
2023-04-02T15:36:43.107Z,96168.81
2023-04-02T15:39:35.277Z,96164.53
2023-04-02T15:42:20.967Z,96169.00
2023-04-02T15:45:18.315Z,96166.84
2023-04-02T15:48:01.971Z,96176.50
2023-04-02T15:50:44.760Z,96175.53
2023-04-02T15:53:34.701Z,96180.50
2023-04-02T15:56:15.225Z,96192.13
2023-04-02T15:59:11.248Z,96202.22
2023-04-02T16:01:47.757Z,96203.22
2023-04-02T16:04:45.914Z,96202.16
2023-04-02T16:07:30.326Z,96210.25
2023-04-02T16:10:06.217Z,96208.72
2023-04-02T16:12:42.083Z,96217.81
2023-04-02T16:15:17.834Z,96227.25
2023-04-02T16:17:49.011Z,96226.91
2023-04-02T16:20:23.918Z,96230.03
2023-04-02T16:23:01.406Z,96242.06
2023-04-02T16:25:35.888Z,96238.63
2023-04-02T16:28:14.945Z,96241.75
2023-04-02T16:30:51.651Z,96248.69
2023-04-02T16:33:37.527Z,96256.16
2023-04-02T16:36:19.139Z,96257.50
2023-04-02T16:38:58.717Z,96265.06
2023-04-02T16:41:40.313Z,96272.19
2023-04-02T16:44:21.255Z,96273.38
2023-04-02T16:47:03.185Z,96272.53
2023-04-02T16:49:37.170Z,96275.19
2023-04-02T16:52:23.793Z,96285.59
2023-04-02T16:55:11.745Z,96282.94
2023-04-02T16:57:51.668Z,96289.06
2023-04-02T17:00:31.753Z,96291.22
2023-04-02T17:03:19.155Z,96292.22
2023-04-02T17:05:56.929Z,96295.53
2023-04-02T17:08:27.244Z,96298.50
2023-04-02T17:11:01.961Z,96296.22
2023-04-02T17:13:39.746Z,96300.69
2023-04-02T17:16:17.935Z,96306.34
2023-04-02T17:18:49.530Z,96308.16
2023-04-02T17:21:21.822Z,96319.72
2023-04-02T17:23:56.589Z,96315.94
2023-04-02T17:26:29.107Z,96314.94
2023-04-02T17:28:59.587Z,96322.69
2023-04-02T17:31:34.226Z,96326.34
2023-04-02T17:34:10.855Z,96328.50
2023-04-02T17:36:47.472Z,96332.31
2023-04-02T17:39:23.184Z,96335.28
2023-04-02T17:42:03.400Z,96336.28
2023-04-02T17:44:55.314Z,96348.84
2023-04-02T17:47:25.813Z,96340.56
2023-04-02T17:50:07.716Z,96352.63
2023-04-02T17:52:41.539Z,96351.13
2023-04-02T17:55:19.718Z,96352.81
2023-04-02T17:58:01.589Z,96355.09
2023-04-02T18:00:57.521Z,96369.78
2023-04-02T18:03:58.686Z,96368.13
2023-04-02T18:06:38.017Z,96379.69
2023-04-02T18:09:26.114Z,96382.50
2023-04-02T18:12:04.579Z,96390.72
2023-04-02T18:14:59.587Z,96387.41
2023-04-02T18:17:34.615Z,96400.63
2023-04-02T18:20:16.175Z,96398.63
2023-04-02T18:22:54.197Z,96400.75
2023-04-02T18:25:33.886Z,96406.34
2023-04-02T18:28:17.797Z,96413.75
2023-04-02T18:30:55.680Z,96413.06
2023-04-02T18:33:54.512Z,96415.38
2023-04-02T18:36:27.870Z,96435.81
2023-04-02T18:39:03.177Z,96429.56
2023-04-02T18:41:44.334Z,96435.31
2023-04-02T18:44:28.632Z,96450.13
2023-04-02T18:47:08.509Z,96452.91
2023-04-02T18:49:40.950Z,96456.88
2023-04-02T18:52:13.401Z,96463.81
2023-04-02T18:54:46.841Z,96465.59
2023-04-02T18:57:18.819Z,96477.59
2023-04-02T18:59:50.637Z,96483.84
2023-04-02T19:02:44.850Z,96485.72
2023-04-02T19:05:21.727Z,96493.44
2023-04-02T19:07:56.144Z,96495.56
2023-04-02T19:10:32.198Z,96503.09
2023-04-02T19:13:00.942Z,96506.19
2023-04-02T19:15:38.209Z,96511.63
2023-04-02T19:18:19.061Z,96508.31
2023-04-02T19:20:57.057Z,96516.38
2023-04-02T19:23:52.803Z,96520.81
2023-04-02T19:26:28.073Z,96523.94
2023-04-02T19:29:05.231Z,96528.53
2023-04-02T19:31:49.525Z,96537.53
2023-04-02T19:34:26.467Z,96550.72
2023-04-02T19:37:00.687Z,96546.13
2023-04-02T19:39:52.513Z,96555.03
2023-04-02T19:42:34.192Z,96560.59
2023-04-02T19:45:03.852Z,96567.97
2023-04-02T19:47:32.454Z,96568.41
2023-04-02T19:50:02.282Z,96569.00
2023-04-02T19:52:30.728Z,96569.63
2023-04-02T19:54:59.071Z,96583.34
2023-04-02T19:57:28.489Z,96588.25
2023-04-02T19:59:56.897Z,96597.72
2023-04-02T20:02:25.494Z,96594.41
2023-04-02T20:04:54.048Z,96599.16
2023-04-02T20:07:23.853Z,96598.66
2023-04-02T20:09:52.292Z,96601.50
2023-04-02T20:12:21.461Z,96608.44
2023-04-02T20:14:49.836Z,96614.16
2023-04-02T20:17:18.204Z,96618.31
2023-04-02T20:19:46.637Z,96625.13
2023-04-02T20:22:15.030Z,96626.25
2023-04-02T20:24:45.334Z,96626.53
2023-04-02T20:27:13.847Z,96629.31
2023-04-02T20:29:42.503Z,96636.94
2023-04-02T20:32:12.906Z,96643.72
2023-04-02T20:34:41.768Z,96647.63
2023-04-02T20:37:10.173Z,96654.00
2023-04-02T20:39:39.085Z,96656.63
2023-04-02T20:42:08.958Z,96656.63
2023-04-02T20:44:38.985Z,96663.41
2023-04-02T20:47:08.314Z,96664.41
2023-04-02T20:49:36.699Z,96669.53
2023-04-02T20:52:05.227Z,96675.50
2023-04-02T20:54:33.713Z,96680.88
2023-04-02T20:57:02.772Z,96678.09
2023-04-02T20:59:32.570Z,96673.13
2023-04-02T21:02:05.076Z,96680.72
2023-04-02T21:04:33.489Z,96691.91
2023-04-02T21:07:01.871Z,96698.84
2023-04-02T21:09:30.786Z,96706.75
2023-04-02T21:11:59.234Z,96706.63
2023-04-02T21:14:27.682Z,96712.72
2023-04-02T21:16:57.867Z,96714.50
2023-04-02T21:19:27.118Z,96723.06
2023-04-02T21:21:55.748Z,96720.56
2023-04-02T21:24:24.138Z,96716.41
2023-04-02T21:26:52.537Z,96724.97
2023-04-02T21:29:20.980Z,96732.25
2023-04-02T21:31:50.353Z,96724.72
2023-04-02T21:34:20.672Z,96725.25
2023-04-02T21:36:50.467Z,96729.41
2023-04-02T21:39:20.608Z,96730.75
2023-04-02T21:41:51.228Z,96726.66
2023-04-02T21:44:21.909Z,96728.25
2023-04-02T21:46:52.129Z,96733.38
2023-04-02T21:49:25.429Z,96729.28
2023-04-02T21:51:54.151Z,96737.22
2023-04-02T21:54:22.657Z,96735.47
2023-04-02T21:56:51.495Z,96739.75
2023-04-02T21:59:22.212Z,96751.59
2023-04-02T22:01:52.434Z,96744.69
2023-04-02T22:04:24.453Z,96735.81
2023-04-02T22:06:53.809Z,96736.66
2023-04-02T22:09:24.577Z,96757.31
2023-04-02T22:11:55.587Z,96752.34
2023-04-02T22:14:24.434Z,96753.81
2023-04-02T22:16:52.926Z,96763.84
2023-04-02T22:19:23.226Z,96765.06
2023-04-02T22:21:51.783Z,96756.31
2023-04-02T22:24:22.025Z,96759.50
2023-04-02T22:26:51.062Z,96764.75
2023-04-02T22:29:19.504Z,96775.03
2023-04-02T22:31:48.350Z,96769.09
2023-04-02T22:34:16.710Z,96776.53
2023-04-02T22:36:57.648Z,96768.47
2023-04-02T22:39:26.090Z,96772.63
2023-04-02T22:41:54.401Z,96768.53
2023-04-02T22:44:23.139Z,96771.53
2023-04-02T22:46:51.578Z,96774.59
2023-04-02T22:49:20.093Z,96765.97
2023-04-02T22:51:48.532Z,96771.34
2023-04-02T22:54:18.386Z,96772.19
2023-04-02T22:56:47.381Z,96765.47
2023-04-02T22:59:16.118Z,96768.09
2023-04-02T23:01:46.369Z,96773.97
2023-04-02T23:04:14.856Z,96771.16
2023-04-02T23:06:43.237Z,96775.63
2023-04-02T23:09:12.098Z,96772.00
2023-04-02T23:11:41.783Z,96774.41
2023-04-02T23:14:10.658Z,96770.94
2023-04-02T23:16:39.074Z,96772.19
2023-04-02T23:19:08.172Z,96774.72
2023-04-02T23:21:36.491Z,96776.94
2023-04-02T23:24:05.132Z,96774.06
2023-04-02T23:26:33.461Z,96771.16
2023-04-02T23:29:03.146Z,96775.47
2023-04-02T23:31:31.552Z,96778.78
2023-04-02T23:34:00.002Z,96784.88
2023-04-02T23:36:30.116Z,96783.06
2023-04-02T23:39:01.435Z,96784.16
2023-04-02T23:41:31.366Z,96781.66
2023-04-02T23:43:59.976Z,96784.28
2023-04-02T23:46:30.716Z,96781.66
2023-04-02T23:49:00.525Z,96783.06
2023-04-02T23:51:29.672Z,96781.13
2023-04-02T23:53:58.216Z,96777.56
2023-04-02T23:56:27.082Z,96779.47
2023-04-02T23:58:55.442Z,96777.09
